createdAt,value
2023-03-17T00:39:18.404Z,181.24
2023-03-17T00:49:18.340Z,182.32
2023-03-17T01:07:18.407Z,183.42
2023-03-17T01:08:18.413Z,183.52
2023-03-17T01:09:18.497Z,181.58
2023-03-17T01:10:18.460Z,181.64
2023-03-17T01:11:18.418Z,183.15
2023-03-17T01:12:18.438Z,181.28
2023-03-17T01:13:18.414Z,179.21
2023-03-17T01:14:18.406Z,179.93
2023-03-17T01:15:18.415Z,179.52
2023-03-17T01:16:18.487Z,181.95
2023-03-17T01:17:18.425Z,181.10
2023-03-17T01:18:18.466Z,182.29
2023-03-17T01:19:18.421Z,181.02
2023-03-17T01:20:18.428Z,180.74
2023-03-17T01:21:18.429Z,183.86
2023-03-17T01:22:18.424Z,181.02
2023-03-17T01:23:18.455Z,179.55
2023-03-17T01:24:18.454Z,182.61
2023-03-17T01:25:18.474Z,182.27
2023-03-17T01:26:18.474Z,183.06
2023-03-17T01:27:18.484Z,183.07
2023-03-17T01:28:18.522Z,180.42
2023-03-17T01:29:18.540Z,181.62
2023-03-17T01:30:18.472Z,177.73
2023-03-17T01:31:18.522Z,180.35
2023-03-17T01:32:18.489Z,180.13
2023-03-17T01:33:18.494Z,180.65
2023-03-17T01:34:18.511Z,181.92
2023-03-17T01:35:18.562Z,184.50
2023-03-17T01:36:18.504Z,180.64
2023-03-17T01:37:18.506Z,182.29
2023-03-17T01:38:18.513Z,179.92
2023-03-17T01:39:18.523Z,180.49
2023-03-17T01:40:18.547Z,184.07
2023-03-17T01:41:18.560Z,181.63
2023-03-17T01:42:18.561Z,182.29
2023-03-17T01:43:18.571Z,182.52
2023-03-17T01:44:18.599Z,182.28
2023-03-17T01:45:18.609Z,183.85
2023-03-17T01:46:18.595Z,181.51
2023-03-17T01:47:18.611Z,180.89
2023-03-17T01:48:18.623Z,182.70
2023-03-17T01:49:18.634Z,184.63
2023-03-17T01:50:18.648Z,182.11
2023-03-17T01:51:18.660Z,181.52
2023-03-17T01:52:18.665Z,184.15
2023-03-17T01:53:18.680Z,181.58
2023-03-17T01:54:18.681Z,181.23
2023-03-17T01:55:18.706Z,183.66
2023-03-17T01:56:18.713Z,181.80
2023-03-17T01:57:18.723Z,179.06
2023-03-17T01:58:18.735Z,181.36
2023-03-17T01:59:18.737Z,182.91
2023-03-17T02:00:18.748Z,182.21
2023-03-17T02:01:18.827Z,184.19
2023-03-17T02:02:18.775Z,182.53
2023-03-17T02:03:18.800Z,182.61
2023-03-17T02:04:18.877Z,180.89
2023-03-17T02:05:18.817Z,183.72
2023-03-17T02:06:18.820Z,182.72
2023-03-17T02:07:18.834Z,181.17
2023-03-17T02:08:18.836Z,183.07
2023-03-17T02:09:18.846Z,181.95
2023-03-17T02:10:18.863Z,182.95
2023-03-17T02:11:18.872Z,180.90
2023-03-17T02:12:19.092Z,182.15
2023-03-17T02:13:18.882Z,181.35
2023-03-17T02:14:18.896Z,182.47
2023-03-17T02:15:18.907Z,182.13
2023-03-17T02:16:18.963Z,181.04
2023-03-17T02:17:18.939Z,183.14
2023-03-17T02:18:19.599Z,183.04
2023-03-17T02:19:18.977Z,181.98
2023-03-17T02:20:19.011Z,181.22
2023-03-17T02:21:18.990Z,181.32
2023-03-17T02:22:19.082Z,184.07
2023-03-17T02:23:19.003Z,182.03
2023-03-17T02:24:19.090Z,184.17
2023-03-17T02:25:19.033Z,184.36
2023-03-17T02:26:19.089Z,183.16
2023-03-17T02:27:19.068Z,180.91
2023-03-17T02:28:19.079Z,181.34
2023-03-17T02:29:19.092Z,182.09
2023-03-17T02:30:19.093Z,181.48
2023-03-17T02:31:19.153Z,181.24
2023-03-17T02:32:19.138Z,182.68
2023-03-17T02:33:19.148Z,180.78
2023-03-17T02:34:19.162Z,182.53
2023-03-17T02:35:19.187Z,181.41
2023-03-17T02:36:19.230Z,181.47
2023-03-17T02:37:19.227Z,183.07
2023-03-17T02:38:19.228Z,181.60
2023-03-17T02:39:19.306Z,181.81
2023-03-17T02:40:19.243Z,181.90
2023-03-17T02:41:19.279Z,182.96
2023-03-17T02:42:19.256Z,182.51
2023-03-17T02:43:19.281Z,182.06
2023-03-17T02:44:19.297Z,181.30
2023-03-17T02:45:19.294Z,179.08
2023-03-17T02:46:19.340Z,181.78
2023-03-17T02:47:19.515Z,180.85
2023-03-17T02:48:19.321Z,180.85
2023-03-17T02:49:19.354Z,182.57
2023-03-17T02:50:19.343Z,181.22
2023-03-17T02:51:19.359Z,182.10
2023-03-17T02:52:20.104Z,182.95
2023-03-17T02:53:19.364Z,180.75
2023-03-17T02:54:19.367Z,181.04
2023-03-17T02:55:19.374Z,182.90
2023-03-17T02:56:19.380Z,179.40
2023-03-17T02:57:19.370Z,181.72
2023-03-17T02:58:19.381Z,182.87
2023-03-17T02:59:20.105Z,181.80
2023-03-17T03:00:19.399Z,181.40
2023-03-17T03:01:19.417Z,183.34
2023-03-17T03:02:19.438Z,180.84
2023-03-17T03:03:19.417Z,181.53
2023-03-17T03:04:19.429Z,180.81
2023-03-17T03:05:19.419Z,183.24
2023-03-17T03:06:19.436Z,181.47
2023-03-17T03:07:19.432Z,181.46
2023-03-17T03:08:19.454Z,182.35
2023-03-17T03:09:19.452Z,181.83
2023-03-17T03:10:19.454Z,181.74
2023-03-17T03:11:19.459Z,182.73
2023-03-17T03:12:19.461Z,181.95
2023-03-17T03:13:19.459Z,181.27
2023-03-17T03:14:19.478Z,183.16
2023-03-17T03:15:19.540Z,182.36
2023-03-17T03:16:19.695Z,181.84
2023-03-17T03:17:19.490Z,179.34
2023-03-17T03:18:19.490Z,183.76
2023-03-17T03:19:19.516Z,181.68
2023-03-17T03:20:19.502Z,180.86
2023-03-17T03:21:19.498Z,180.23
2023-03-17T03:22:19.486Z,182.82
2023-03-17T03:23:19.494Z,181.96
2023-03-17T03:24:19.493Z,183.80
2023-03-17T03:25:19.506Z,181.51
2023-03-17T03:26:20.125Z,182.11
2023-03-17T03:27:20.116Z,181.60
2023-03-17T03:28:19.503Z,178.88
2023-03-17T03:29:19.522Z,180.80
2023-03-17T03:30:19.613Z,181.09
2023-03-17T03:31:19.528Z,180.64
2023-03-17T03:32:19.517Z,182.49
2023-03-17T03:33:19.530Z,179.59
2023-03-17T03:34:19.530Z,180.14
2023-03-17T03:35:19.535Z,181.58
2023-03-17T03:36:19.537Z,182.10
2023-03-17T03:37:19.551Z,181.97
2023-03-17T03:38:19.553Z,183.13
2023-03-17T03:39:19.576Z,181.35
2023-03-17T03:40:19.572Z,181.61
2023-03-17T03:41:19.618Z,181.24
2023-03-17T03:42:19.570Z,181.54
2023-03-17T03:43:23.336Z,182.12
2023-03-17T03:44:19.556Z,182.26
2023-03-17T03:45:19.561Z,182.48
2023-03-17T03:46:19.535Z,182.68
2023-03-17T03:47:19.503Z,182.18
2023-03-17T03:48:19.496Z,183.49
2023-03-17T03:49:19.477Z,181.36
2023-03-17T03:50:19.458Z,182.28
2023-03-17T03:51:19.436Z,181.95
2023-03-17T03:52:19.422Z,179.84
2023-03-17T03:53:19.405Z,183.56
2023-03-17T03:54:19.395Z,180.30
2023-03-17T03:55:19.384Z,181.35
2023-03-17T03:56:19.358Z,180.79
2023-03-17T03:57:19.348Z,180.54
2023-03-17T03:58:19.339Z,183.35
2023-03-17T03:59:19.317Z,181.51
2023-03-17T04:01:19.332Z,183.26
2023-03-17T04:55:19.060Z,182.21
2023-03-17T04:59:19.211Z,179.47
2023-03-17T05:04:30.854Z,179.43
2023-03-17T05:07:19.084Z,180.48
2023-03-17T05:14:18.968Z,183.54
2023-03-17T05:15:18.960Z,183.99
2023-03-17T05:16:18.966Z,179.84
2023-03-17T05:17:18.917Z,181.06
2023-03-17T05:19:18.886Z,181.88
2023-03-17T05:20:18.862Z,183.53
2023-03-17T05:22:18.832Z,179.29
2023-03-17T05:23:18.823Z,182.01
2023-03-17T05:24:18.810Z,181.28
2023-03-17T05:25:18.790Z,179.00
2023-03-17T05:26:18.878Z,183.61
2023-03-17T05:27:18.817Z,183.83
2023-03-17T05:28:18.830Z,181.04
2023-03-17T05:30:18.813Z,181.27
2023-03-17T05:31:18.794Z,181.62
2023-03-17T05:32:18.761Z,181.97
2023-03-17T05:33:18.735Z,182.43
2023-03-17T05:35:18.712Z,181.51
2023-03-17T05:36:18.703Z,181.60
2023-03-17T05:37:18.672Z,181.99
2023-03-17T05:38:18.648Z,181.03
2023-03-17T05:39:19.143Z,181.61
2023-03-17T05:40:18.625Z,179.80
2023-03-17T05:41:18.612Z,181.32
2023-03-17T05:42:18.598Z,180.36
2023-03-17T05:52:18.430Z,177.95
2023-03-17T05:53:18.419Z,179.70
2023-03-17T05:54:18.435Z,178.63
2023-03-17T05:55:18.434Z,179.95
2023-03-17T05:56:18.463Z,180.64
2023-03-17T05:57:18.486Z,179.62
2023-03-17T05:58:18.498Z,180.65
2023-03-17T05:59:18.561Z,178.94
2023-03-17T06:00:18.545Z,181.64
2023-03-17T06:01:18.548Z,181.83
2023-03-17T06:02:18.634Z,182.63
2023-03-17T06:03:18.672Z,181.70
2023-03-17T06:04:18.608Z,182.21
2023-03-17T06:05:18.690Z,178.91
2023-03-17T06:06:18.636Z,178.63
2023-03-17T06:07:18.642Z,180.03
2023-03-17T06:08:18.654Z,180.65
2023-03-17T06:09:18.692Z,180.07
2023-03-17T06:10:18.712Z,178.24
2023-03-17T06:11:18.704Z,180.60
2023-03-17T06:12:18.726Z,178.66
2023-03-17T06:13:18.728Z,179.01
2023-03-17T06:14:18.795Z,178.66
2023-03-17T06:15:18.755Z,181.21
2023-03-17T06:16:18.884Z,179.06
2023-03-17T06:17:18.787Z,179.95
2023-03-17T06:18:18.768Z,179.62
2023-03-17T06:19:18.812Z,178.16
2023-03-17T06:20:18.808Z,162.10
2023-03-17T06:21:18.913Z,137.23
2023-03-17T06:22:18.881Z,124.09
2023-03-17T06:23:18.940Z,128.91
2023-03-17T06:24:18.981Z,103.84
2023-03-17T06:25:18.955Z,127.05
2023-03-17T06:26:18.975Z,136.02
2023-03-17T06:27:18.985Z,89.03
2023-03-17T06:28:19.590Z,94.14
2023-03-17T06:29:19.050Z,80.34
2023-03-17T06:30:19.082Z,72.32
2023-03-17T06:31:19.200Z,101.68
2023-03-17T06:32:20.882Z,106.92
2023-03-17T06:33:19.156Z,104.14
2023-03-17T06:34:19.163Z,103.71
2023-03-17T06:35:19.291Z,102.26
2023-03-17T06:36:19.254Z,100.08
2023-03-17T06:37:19.329Z,99.65
2023-03-17T06:38:19.352Z,97.75
2023-03-17T06:39:19.425Z,96.59
2023-03-17T06:40:19.449Z,98.15
2023-03-17T06:41:19.489Z,94.54
2023-03-17T06:42:19.537Z,96.73
2023-03-17T06:43:19.564Z,96.54
2023-03-17T06:44:19.684Z,96.52
2023-03-17T06:45:19.662Z,94.75
2023-03-17T06:46:19.726Z,95.25
2023-03-17T06:47:19.718Z,98.32
2023-03-17T06:48:19.752Z,96.99
2023-03-17T06:49:19.768Z,95.24
2023-03-17T06:50:20.594Z,96.21
2023-03-17T06:51:19.811Z,99.65
2023-03-17T06:52:19.842Z,98.28
2023-03-17T06:53:19.844Z,99.32
2023-03-17T06:54:19.887Z,102.62
2023-03-17T06:55:19.890Z,102.62
2023-03-17T06:56:29.565Z,103.55
2023-03-17T06:58:19.890Z,104.26
2023-03-17T06:59:19.892Z,103.89
2023-03-17T07:00:19.873Z,105.48
2023-03-17T07:01:19.904Z,107.20
2023-03-17T07:02:19.863Z,106.73
2023-03-17T07:03:19.840Z,107.47
2023-03-17T07:04:19.860Z,109.82
2023-03-17T07:05:19.826Z,111.93
2023-03-17T07:06:19.832Z,108.99
2023-03-17T07:07:19.844Z,111.65
2023-03-17T07:08:19.822Z,108.99
2023-03-17T07:09:19.790Z,111.80
2023-03-17T07:10:21.517Z,112.27
2023-03-17T07:11:21.597Z,113.14
2023-03-17T07:12:19.766Z,111.05
2023-03-17T07:13:19.758Z,114.35
2023-03-17T07:14:19.778Z,112.13
2023-03-17T07:15:19.783Z,114.19
2023-03-17T07:16:19.809Z,113.80
2023-03-17T07:17:19.803Z,112.50
2023-03-17T07:18:19.786Z,114.19
2023-03-17T07:19:19.811Z,116.59
2023-03-17T07:20:19.811Z,112.56
2023-03-17T07:21:19.862Z,116.33
2023-03-17T07:22:20.183Z,115.36
2023-03-17T07:23:19.866Z,118.02
2023-03-17T07:24:19.891Z,118.18
2023-03-17T07:25:20.463Z,120.00
2023-03-17T07:26:20.635Z,123.56
2023-03-17T07:27:22.763Z,132.71
2023-03-17T07:28:19.901Z,142.81
2023-03-17T07:29:19.880Z,148.85
2023-03-17T07:30:19.862Z,161.56
2023-03-17T07:31:19.965Z,173.46
2023-03-17T07:32:19.884Z,185.21
2023-03-17T07:33:19.833Z,189.03
2023-03-17T07:34:19.867Z,202.50
2023-03-17T07:35:19.862Z,207.97
2023-03-17T07:36:19.797Z,214.91
2023-03-17T07:37:19.798Z,219.95
2023-03-17T07:38:19.773Z,232.82
2023-03-17T07:39:19.727Z,239.53
2023-03-17T07:41:19.693Z,246.52
2023-03-17T07:42:19.726Z,250.00
2023-03-17T07:43:19.762Z,250.22
2023-03-17T07:44:19.650Z,250.00
2023-03-17T07:45:19.611Z,250.00
2023-03-17T07:46:19.672Z,250.00
2023-03-17T07:47:19.572Z,249.94
2023-03-17T07:48:19.546Z,248.70
2023-03-17T07:49:33.991Z,250.48
2023-03-17T07:50:20.537Z,250.78
2023-03-17T07:51:19.471Z,252.07
2023-03-17T07:52:19.432Z,256.83
2023-03-17T07:53:19.421Z,263.00
2023-03-17T07:54:20.193Z,277.30
2023-03-17T07:55:19.381Z,261.75
2023-03-17T07:56:19.318Z,250.00
2023-03-17T07:57:19.347Z,250.00
2023-03-17T07:58:19.278Z,249.75
2023-03-17T07:59:19.265Z,250.00
2023-03-17T08:00:19.288Z,250.00
2023-03-17T08:01:19.300Z,249.62
2023-03-17T08:02:19.443Z,249.03
2023-03-17T08:03:19.590Z,248.69
2023-03-17T08:04:19.409Z,249.14
2023-03-17T08:05:20.214Z,250.00
2023-03-17T08:06:19.461Z,249.95
2023-03-17T08:07:21.114Z,249.39
2023-03-17T08:08:19.530Z,249.64
2023-03-17T08:09:19.537Z,250.00
2023-03-17T08:10:21.219Z,250.00
2023-03-17T08:11:19.648Z,249.14
2023-03-17T08:12:19.653Z,249.51
2023-03-17T08:13:19.722Z,250.41
2023-03-17T08:14:20.201Z,249.93
2023-03-17T08:15:19.706Z,250.00
2023-03-17T08:16:19.772Z,249.44
2023-03-17T08:17:19.788Z,248.83
2023-03-17T08:18:19.813Z,250.00
2023-03-17T08:19:19.852Z,250.00
2023-03-17T08:20:19.829Z,248.97
2023-03-17T08:21:19.919Z,249.24
2023-03-17T08:22:20.691Z,249.49
2023-03-17T08:23:19.891Z,249.79
2023-03-17T08:24:21.612Z,249.29
2023-03-17T08:25:20.692Z,249.78
2023-03-17T08:26:20.031Z,249.80
2023-03-17T08:27:20.001Z,250.00
2023-03-17T08:28:20.048Z,248.48
2023-03-17T08:29:20.063Z,248.96
2023-03-17T08:30:20.088Z,249.68
2023-03-17T08:31:20.225Z,249.04
2023-03-17T08:32:20.156Z,248.64
2023-03-17T08:33:20.304Z,249.00
2023-03-17T08:34:21.188Z,249.51
2023-03-17T08:35:20.280Z,249.76
2023-03-17T08:36:20.279Z,248.89
2023-03-17T08:37:20.303Z,249.75
2023-03-17T08:38:20.326Z,248.65
2023-03-17T08:39:20.360Z,248.66
2023-03-17T08:40:20.397Z,249.75
2023-03-17T08:41:20.427Z,248.63
2023-03-17T08:42:20.429Z,249.67
2023-03-17T08:43:20.455Z,249.80
2023-03-17T08:44:20.474Z,248.77
2023-03-17T08:45:21.206Z,249.74
2023-03-17T08:46:20.598Z,248.85
2023-03-17T08:47:20.626Z,249.36
2023-03-17T08:48:20.622Z,249.82
2023-03-17T08:49:20.666Z,249.97
2023-03-17T08:50:20.642Z,249.73
2023-03-17T08:51:24.141Z,249.85
2023-03-17T08:52:20.640Z,247.94
2023-03-17T08:53:20.636Z,248.19
2023-03-17T08:54:20.578Z,248.52
2023-03-17T08:55:20.560Z,249.56
2023-03-17T08:56:20.629Z,248.91
2023-03-17T08:57:20.497Z,249.17
2023-03-17T08:58:21.471Z,249.34
2023-03-17T08:59:20.442Z,249.59
2023-03-17T09:00:20.493Z,250.75
2023-03-17T09:01:20.433Z,250.86
2023-03-17T09:02:20.444Z,253.34
2023-03-17T09:03:20.343Z,249.78
2023-03-17T09:04:20.313Z,250.00
2023-03-17T09:05:20.322Z,249.06
2023-03-17T09:06:20.261Z,249.40
2023-03-17T09:07:20.234Z,249.80
2023-03-17T09:08:20.224Z,250.00
2023-03-17T09:09:20.205Z,249.02
2023-03-17T09:10:20.391Z,250.01
2023-03-17T09:11:20.281Z,249.00
2023-03-17T09:12:20.301Z,247.73
2023-03-17T09:14:20.389Z,246.28
2023-03-17T09:15:20.320Z,245.74
2023-03-17T09:16:20.296Z,244.55
2023-03-17T09:17:21.207Z,245.81
2023-03-17T09:18:22.114Z,242.82
2023-03-17T09:19:20.180Z,244.03
2023-03-17T09:20:20.161Z,239.97
2023-03-17T09:21:20.125Z,234.78
2023-03-17T09:22:20.223Z,229.79
2023-03-17T09:23:20.134Z,233.56
2023-03-17T09:24:20.066Z,232.53
2023-03-17T09:25:20.032Z,228.68
2023-03-17T09:26:20.060Z,226.03
2023-03-17T09:27:20.030Z,224.54
2023-03-17T09:28:20.069Z,225.29
2023-03-17T09:29:20.082Z,228.02
2023-03-17T09:30:20.127Z,225.99
2023-03-17T09:31:20.783Z,229.29
2023-03-17T09:32:20.143Z,230.45
2023-03-17T09:33:20.638Z,230.48
2023-03-17T09:34:20.217Z,231.84
2023-03-17T09:35:20.179Z,233.21
2023-03-17T09:36:20.216Z,235.06
2023-03-17T09:37:20.189Z,236.86
2023-03-17T09:38:20.180Z,236.57
2023-03-17T09:39:20.192Z,239.61
2023-03-17T09:40:20.204Z,241.41
2023-03-17T09:41:20.214Z,240.52
2023-03-17T09:42:21.214Z,242.96
2023-03-17T09:43:20.230Z,246.42
2023-03-17T09:44:20.749Z,245.32
2023-03-17T09:45:20.335Z,248.20
2023-03-17T09:46:20.337Z,248.74
2023-03-17T09:47:20.275Z,247.73
2023-03-17T09:48:20.272Z,249.58
2023-03-17T09:49:21.224Z,250.00
2023-03-17T09:50:20.286Z,248.11
2023-03-17T09:51:20.396Z,249.76
2023-03-17T09:52:20.285Z,248.25
2023-03-17T09:53:20.292Z,250.08
2023-03-17T09:54:20.288Z,248.81
2023-03-17T09:55:20.287Z,248.91
2023-03-17T09:56:20.291Z,248.46
2023-03-17T09:57:20.298Z,249.05
2023-03-17T09:58:20.296Z,250.00
2023-03-17T09:59:20.282Z,247.90
2023-03-17T10:00:20.276Z,249.74
2023-03-17T10:01:20.288Z,249.30
2023-03-17T10:02:20.253Z,249.24
2023-03-17T10:03:20.723Z,249.14
2023-03-17T10:04:20.250Z,248.73
2023-03-17T10:05:20.263Z,249.07
2023-03-17T10:06:20.218Z,250.00
2023-03-17T10:07:20.204Z,247.22
2023-03-17T10:08:30.596Z,249.10
2023-03-17T10:09:21.165Z,249.28
2023-03-17T10:10:20.138Z,249.48
2023-03-17T10:11:20.099Z,250.73
2023-03-17T10:12:20.076Z,251.57
2023-03-17T10:13:20.032Z,256.09
2023-03-17T10:14:19.996Z,248.04
2023-03-17T10:15:19.975Z,247.20
2023-03-17T10:16:20.000Z,248.68
2023-03-17T10:17:20.231Z,249.10
2023-03-17T10:18:19.863Z,250.00
2023-03-17T10:19:19.903Z,244.43
2023-03-17T10:20:19.862Z,243.04
2023-03-17T10:21:19.772Z,241.81
2023-03-17T10:22:19.822Z,244.32
2023-03-17T10:23:20.230Z,242.11
2023-03-17T10:24:19.672Z,242.21
2023-03-17T10:25:19.758Z,242.17
2023-03-17T10:26:19.615Z,241.34
2023-03-17T10:27:21.341Z,240.36
2023-03-17T10:28:19.577Z,241.04
2023-03-17T10:29:20.233Z,241.16
2023-03-17T10:30:21.318Z,239.49
2023-03-17T10:31:20.279Z,242.77
2023-03-17T10:32:20.152Z,243.58
2023-03-17T10:33:19.604Z,239.78
2023-03-17T10:34:19.548Z,242.98
2023-03-17T10:35:19.556Z,243.69
2023-03-17T10:36:20.260Z,242.38
2023-03-17T10:37:19.545Z,241.86
2023-03-17T10:38:19.531Z,245.00
2023-03-17T10:39:20.198Z,244.68
2023-03-17T10:40:22.858Z,242.71
2023-03-17T10:41:20.234Z,246.04
2023-03-17T10:42:21.248Z,245.65
2023-03-17T10:43:20.158Z,247.91
2023-03-17T10:44:19.364Z,246.93
2023-03-17T10:45:19.334Z,246.78
2023-03-17T10:46:19.353Z,245.53
2023-03-17T10:47:19.292Z,245.60
2023-03-17T10:48:19.218Z,245.89
2023-03-17T10:49:19.742Z,245.99
2023-03-17T10:50:19.209Z,247.62
2023-03-17T10:51:19.105Z,248.09
2023-03-17T10:52:19.248Z,248.56
2023-03-17T10:53:19.026Z,247.70
2023-03-17T10:54:18.987Z,249.46
2023-03-17T10:55:20.777Z,246.27
2023-03-17T10:56:19.931Z,246.44
2023-03-17T10:57:18.889Z,246.73
2023-03-17T10:58:18.871Z,248.26
2023-03-17T10:59:18.877Z,249.69
2023-03-17T11:00:18.851Z,251.10
2023-03-17T11:01:18.770Z,249.19
2023-03-17T11:02:18.728Z,248.49
2023-03-17T11:03:18.696Z,247.57
2023-03-17T11:04:18.723Z,249.09
2023-03-17T11:05:18.618Z,247.89
2023-03-17T11:06:18.585Z,250.00
2023-03-17T11:07:18.569Z,247.51
2023-03-17T11:08:18.502Z,248.96
2023-03-17T11:09:18.509Z,247.02
2023-03-17T11:10:18.557Z,248.99
2023-03-17T11:11:18.512Z,247.21
2023-03-17T11:12:18.347Z,244.19
2023-03-17T11:13:18.345Z,247.88
2023-03-17T11:14:18.279Z,249.70
2023-03-17T11:15:18.278Z,245.69
2023-03-17T11:16:18.251Z,246.45
2023-03-17T11:17:18.186Z,246.27
2023-03-17T11:18:18.745Z,242.04
2023-03-17T11:19:18.099Z,244.29
2023-03-17T11:20:18.084Z,246.80
2023-03-17T11:21:18.047Z,243.37
2023-03-17T11:22:17.986Z,244.63
2023-03-17T11:41:18.261Z,234.46
2023-03-17T13:18:18.276Z,209.94
2023-03-17T13:22:18.276Z,206.06
2023-03-17T14:11:18.306Z,196.60
2023-03-17T14:39:18.374Z,194.36
2023-03-17T14:53:18.309Z,189.52
2023-03-17T15:06:18.314Z,186.26
2023-03-17T19:13:17.998Z,130.33
2023-03-17T19:14:18.008Z,127.92
2023-03-17T19:25:18.398Z,127.42
2023-03-17T19:44:17.982Z,122.32
2023-03-17T19:45:18.889Z,121.98
2023-03-17T19:47:17.992Z,119.92
2023-03-17T19:48:18.007Z,122.49
2023-03-17T19:49:18.053Z,123.09
2023-03-17T19:50:18.051Z,121.22
2023-03-17T19:51:18.069Z,122.17
2023-03-17T19:52:18.078Z,121.78
2023-03-17T19:53:18.110Z,120.14
2023-03-17T19:54:18.116Z,120.84
2023-03-17T19:55:18.132Z,120.62
2023-03-17T19:56:18.142Z,119.81
2023-03-17T19:57:18.177Z,119.58
2023-03-17T19:58:18.200Z,121.10
2023-03-17T19:59:18.218Z,120.09
2023-03-17T20:00:18.232Z,118.45
2023-03-17T20:01:18.271Z,118.86
2023-03-17T20:02:18.268Z,117.76
2023-03-17T20:03:18.294Z,119.58
2023-03-17T20:04:18.354Z,118.30
2023-03-17T20:05:18.331Z,116.77
2023-03-17T20:06:18.359Z,119.24
2023-03-17T20:07:18.380Z,119.42
2023-03-17T20:08:18.376Z,117.73
2023-03-17T20:09:18.386Z,116.24
2023-03-17T20:10:18.411Z,116.05
2023-03-17T20:11:18.433Z,115.73
2023-03-17T20:12:18.448Z,116.27
2023-03-17T20:13:19.406Z,116.70
2023-03-17T20:14:18.493Z,115.61
2023-03-17T20:15:18.508Z,116.20
2023-03-17T20:16:18.610Z,116.60
2023-03-17T20:17:18.530Z,115.18
2023-03-17T20:18:18.556Z,114.93
2023-03-17T20:19:18.588Z,115.22
2023-03-17T20:20:18.586Z,113.51
2023-03-17T20:21:19.402Z,113.90
2023-03-17T20:22:18.628Z,113.39
2023-03-17T20:23:18.635Z,114.60
2023-03-17T20:24:18.642Z,113.81
2023-03-17T20:25:18.659Z,114.03
2023-03-17T20:26:18.753Z,113.15
2023-03-17T20:27:18.699Z,112.72
2023-03-17T20:28:18.713Z,112.56
2023-03-17T20:29:18.787Z,112.07
2023-03-17T20:30:18.742Z,111.85
2023-03-17T20:31:18.841Z,111.39
2023-03-17T20:32:18.795Z,111.16
2023-03-17T20:33:18.803Z,111.93
2023-03-17T20:34:18.795Z,113.05
2023-03-17T20:35:18.813Z,111.50
2023-03-17T20:36:18.824Z,111.49
2023-03-17T20:37:18.845Z,111.07
2023-03-17T20:38:18.852Z,110.93
2023-03-17T20:39:18.865Z,111.09
2023-03-17T20:40:18.872Z,110.83
2023-03-17T20:41:18.898Z,110.56
2023-03-17T20:42:20.559Z,110.68
2023-03-17T20:43:18.931Z,109.43
2023-03-17T20:44:19.906Z,110.67
2023-03-17T21:23:19.586Z,103.27
2023-03-17T21:24:19.596Z,100.74
2023-03-17T21:25:19.625Z,101.75
2023-03-17T21:26:19.644Z,101.25
2023-03-17T21:28:19.657Z,99.83
2023-03-17T21:29:19.674Z,98.75
2023-03-17T21:30:19.773Z,101.56
2023-03-17T21:32:19.701Z,100.10
2023-03-17T21:33:19.714Z,100.73
2023-03-17T21:35:19.760Z,99.01
2023-03-17T21:36:19.761Z,99.15
2023-03-17T21:37:19.763Z,99.63
2023-03-17T21:38:19.774Z,99.04
2023-03-17T21:39:19.787Z,98.71
2023-03-17T21:40:19.816Z,99.07
2023-03-17T21:41:19.819Z,99.27
2023-03-17T21:42:19.836Z,98.15
2023-03-17T21:43:19.870Z,97.65
2023-03-17T21:44:19.882Z,98.23
2023-03-17T21:45:19.885Z,98.09
2023-03-17T21:46:19.892Z,96.45
2023-03-17T21:47:19.978Z,97.07
2023-03-17T21:48:19.921Z,97.41
2023-03-17T21:49:19.945Z,97.61
2023-03-17T21:50:19.962Z,96.68
2023-03-17T21:51:19.981Z,95.73
2023-03-17T21:52:20.056Z,96.75
2023-03-17T21:53:20.059Z,95.98
2023-03-17T21:54:20.027Z,96.26
2023-03-17T21:55:20.032Z,95.16
2023-03-17T21:56:20.052Z,96.28
2023-03-17T21:57:20.091Z,95.84
2023-03-17T21:58:20.085Z,94.95
2023-03-17T22:10:20.237Z,94.03
2023-03-17T22:11:20.227Z,93.52
2023-03-17T22:12:20.288Z,94.09
2023-03-17T22:13:20.246Z,92.28
2023-03-17T22:14:20.248Z,93.22
2023-03-17T22:15:20.262Z,94.61
2023-03-17T22:16:20.309Z,91.81
2023-03-17T22:17:20.933Z,91.09
2023-03-17T22:18:20.319Z,92.54
2023-03-17T22:19:21.385Z,91.70
2023-03-17T22:20:20.322Z,91.18
2023-03-17T22:21:20.353Z,91.70
2023-03-17T22:22:20.354Z,91.38
2023-03-17T22:23:20.354Z,91.05
2023-03-17T22:24:20.359Z,89.80
2023-03-17T22:25:23.192Z,91.58
2023-03-17T22:26:20.352Z,91.50
2023-03-17T22:27:20.320Z,89.09
2023-03-17T22:28:20.286Z,91.49
2023-03-17T22:29:20.270Z,90.69
2023-03-17T22:30:20.219Z,88.27
2023-03-17T22:31:20.267Z,87.59
2023-03-17T22:32:20.163Z,89.31
2023-03-17T22:33:20.138Z,89.80
2023-03-17T22:34:20.108Z,90.14
2023-03-17T22:35:20.072Z,87.79
2023-03-17T22:36:20.034Z,88.30
2023-03-17T22:37:20.011Z,88.85
2023-03-17T22:38:19.981Z,87.96
2023-03-17T22:39:19.941Z,88.55
2023-03-17T22:40:19.922Z,88.06
2023-03-17T22:41:19.908Z,88.44
2023-03-17T22:42:19.849Z,86.67
2023-03-17T22:43:19.820Z,87.25
2023-03-17T22:44:19.792Z,87.42
2023-03-17T22:45:19.765Z,86.98
2023-03-17T22:46:19.873Z,86.65
2023-03-17T22:47:19.707Z,87.03
2023-03-17T22:48:19.669Z,84.26
2023-03-17T22:49:19.639Z,85.53
2023-03-17T22:50:19.591Z,86.59
2023-03-17T22:51:19.628Z,84.60
2023-03-17T22:52:19.537Z,85.74
2023-03-17T22:53:19.510Z,86.11
2023-03-17T22:54:19.466Z,85.96
2023-03-17T22:55:19.431Z,86.00
2023-03-17T22:56:19.399Z,87.26
2023-03-17T22:57:19.362Z,84.97
2023-03-17T22:58:19.332Z,84.42
2023-03-17T22:59:19.298Z,84.42
2023-03-17T23:00:19.263Z,84.16
2023-03-17T23:01:19.285Z,85.15
2023-03-17T23:02:19.212Z,84.62
2023-03-17T23:03:19.157Z,84.74
2023-03-17T23:04:19.131Z,85.08
2023-03-17T23:05:19.102Z,82.90
2023-03-17T23:06:19.055Z,83.22
2023-03-17T23:07:19.032Z,82.50
2023-03-17T23:08:19.958Z,83.59
2023-03-17T23:09:18.956Z,83.40
2023-03-17T23:10:18.927Z,81.89
2023-03-17T23:11:18.896Z,82.33
2023-03-17T23:12:18.869Z,82.52
2023-03-17T23:13:18.958Z,83.31
2023-03-17T23:14:18.794Z,82.02
2023-03-17T23:15:18.828Z,81.86
2023-03-17T23:16:18.757Z,83.18
2023-03-17T23:17:18.691Z,83.34
2023-03-17T23:18:18.655Z,82.62
2023-03-17T23:19:18.639Z,82.29
2023-03-17T23:20:18.661Z,80.81
2023-03-17T23:21:18.558Z,82.19
2023-03-17T23:22:18.548Z,80.32
2023-03-17T23:23:18.500Z,82.11
2023-03-17T23:24:19.466Z,80.64
2023-03-17T23:25:18.436Z,81.28
2023-03-17T23:26:18.411Z,81.61
2023-03-17T23:27:18.438Z,81.95
2023-03-17T23:28:18.345Z,79.60
2023-03-17T23:29:18.357Z,81.08
2023-03-17T23:30:18.358Z,82.28
2023-03-17T23:31:18.454Z,81.02
2023-03-17T23:32:18.476Z,80.42
2023-03-17T23:33:18.401Z,80.16
2023-03-17T23:34:18.406Z,79.13
2023-03-17T23:35:18.407Z,81.07
2023-03-17T23:36:18.440Z,80.44
2023-03-17T23:37:18.425Z,78.31
2023-03-17T23:38:18.432Z,79.85
2023-03-17T23:39:18.436Z,79.30
2023-03-17T23:40:18.432Z,80.57
2023-03-17T23:41:18.439Z,78.59
2023-03-17T23:42:18.442Z,78.00
2023-03-17T23:43:18.450Z,78.16
2023-03-17T23:44:18.550Z,79.55
2023-03-17T23:45:18.509Z,78.39
2023-03-17T23:46:18.477Z,79.09
2023-03-17T23:47:18.460Z,78.86
2023-03-17T23:48:20.986Z,78.63
2023-03-17T23:49:18.539Z,78.66
2023-03-17T23:50:18.547Z,78.06
2023-03-17T23:51:18.558Z,77.35
2023-03-17T23:52:18.968Z,76.19
2023-03-17T23:53:18.564Z,76.64
2023-03-17T23:54:18.562Z,76.26
2023-03-17T23:55:18.571Z,77.09
2023-03-17T23:56:18.571Z,77.45
2023-03-17T23:57:18.591Z,77.22
2023-03-17T23:58:18.601Z,76.04
2023-03-17T23:59:18.591Z,76.87
